Time;durP1;ratioP1;P1;durP2;ratioP2;P2;SDS_P1;SDS_P2;PMS_P1;PMS_P2;Temp;Humidity;BMP_temperature;BMP_pressure;BME280_temperature;BME280_humidity;BME280_pressure;Samples;Min_cycle;Max_cycle;Signal;HPM_P1;HPM_P2
2020/12/27 00:02:13;;;;;;;;;;;;;;;20.59;31.14;99995.56;5018751;28;19941;-60
2020/12/27 00:04:39;;;;;;;;;;;;;;;20.61;30.96;99990.56;5036020;28;19936;-60
2020/12/27 00:07:07;;;;;;;;;;;;;;;20.60;31.10;99983.38;5037850;28;19931;-61
2020/12/27 00:09:34;;;;;;;;;;;;;;;20.60;31.03;99969.53;5041040;28;19975;-61
2020/12/27 00:12:01;;;;;;;;;;;;;;;20.61;31.10;99968.41;5037160;28;19971;-61
2020/12/27 00:14:28;;;;;;;;;;;;;;;20.58;31.05;99969.00;5036086;28;20012;-60
2020/12/27 00:16:54;;;;;;;;;;;;;;;20.56;30.27;99951.84;5032945;28;19983;-60
2020/12/27 00:19:20;;;;;;;;;;;;;;;20.49;30.31;99945.78;5024302;28;20366;-60
2020/12/27 00:21:46;;;;;;;;;;;;;;;20.38;30.28;99949.75;5037230;28;19925;-60
2020/12/27 00:24:13;;;;;;;;;;;;;;;20.27;30.29;99942.59;5026604;28;19948;-60
2020/12/27 00:26:39;;;;;;;;;;;;;;;20.17;30.23;99937.13;5033132;28;19983;-61
2020/12/27 00:29:05;;;;;;;;;;;;;;;20.11;30.41;99925.25;5033973;28;19925;-60
2020/12/27 00:31:32;;;;;;;;;;;;;;;20.07;30.47;99927.78;5037334;28;19929;-60
2020/12/27 00:33:58;;;;;;;;;;;;;;;20.04;30.52;99917.28;5035621;28;20406;-61
2020/12/27 00:36:25;;;;;;;;;;;;;;;19.99;30.49;99914.56;5028724;28;19925;-61
2020/12/27 00:38:51;;;;;;;;;;;;;;;19.99;30.45;99913.72;5030698;28;19932;-60
2020/12/27 00:41:24;;;;;;;;;;;;;;;19.96;30.78;99912.34;5037371;28;20426;-60
2020/12/27 00:43:51;;;;;;;;;;;;;;;19.95;30.61;99913.47;5037481;28;20027;-61
2020/12/27 00:46:17;;;;;;;;;;;;;;;19.94;30.54;99911.81;5036402;28;20311;-60
2020/12/27 00:48:43;;;;;;;;;;;;;;;19.93;30.38;99901.03;5036174;28;19968;-60
2020/12/27 00:51:10;;;;;;;;;;;;;;;19.92;30.47;99902.97;5035535;28;20246;-61
2020/12/27 00:53:37;;;;;;;;;;;;;;;19.91;30.06;99894.97;5034448;28;19956;-59
2020/12/27 00:56:03;;;;;;;;;;;;;;;19.90;30.30;99880.31;5037512;28;19925;-60
2020/12/27 00:58:32;;;;;;;;;;;;;;;19.91;30.40;99884.72;5031299;28;19932;-60
2020/12/27 01:00:59;;;;;;;;;;;;;;;19.88;30.26;99874.22;5042827;28;19929;-60
2020/12/27 01:03:25;;;;;;;;;;;;;;;19.91;31.06;99873.66;5040474;28;19931;-61
2020/12/27 01:06:07;;;;;;;;;;;;;;;20.03;31.28;99860.31;5034218;28;19972;-60
2020/12/27 01:08:33;;;;;;;;;;;;;;;20.15;30.93;99850.81;5032680;28;19948;-60
2020/12/27 01:11:00;;;;;;;;;;;;;;;20.23;30.88;99858.50;5043633;28;19925;-59
2020/12/27 01:13:26;;;;;;;;;;;;;;;20.28;30.65;99850.16;5045118;28;20028;-61
2020/12/27 01:15:53;;;;;;;;;;;;;;;20.32;30.58;99846.53;5023913;28;19926;-61
2020/12/27 01:18:23;;;;;;;;;;;;;;;20.35;30.60;99839.59;5033255;28;19932;-60
2020/12/27 01:20:53;;;;;;;;;;;;;;;20.36;30.63;99835.72;5033100;28;19971;-59
2020/12/27 01:23:21;;;;;;;;;;;;;;;20.39;30.72;99824.09;5032606;28;19925;-60
2020/12/27 01:25:47;;;;;;;;;;;;;;;20.39;30.69;99824.09;5034124;28;19929;-61
2020/12/27 01:28:15;;;;;;;;;;;;;;;20.38;30.84;99814.13;5015913;28;19925;-60
2020/12/27 01:30:45;;;;;;;;;;;;;;;20.38;30.91;99805.84;5021470;28;19926;-60
2020/12/27 01:33:19;;;;;;;;;;;;;;;20.39;30.94;99802.78;5031922;28;20453;-61
2020/12/27 01:35:55;;;;;;;;;;;;;;;20.40;30.88;99798.88;5033561;28;19932;-61
2020/12/27 01:38:21;;;;;;;;;;;;;;;20.40;30.95;99785.06;5025409;28;19925;-61
2020/12/27 01:40:48;;;;;;;;;;;;;;;20.41;30.87;99777.56;5033488;28;19925;-60
2020/12/27 01:43:17;;;;;;;;;;;;;;;20.40;31.06;99773.16;5033993;28;19925;-60
2020/12/27 01:45:47;;;;;;;;;;;;;;;20.38;30.96;99754.06;5034651;28;19924;-61
2020/12/27 01:48:14;;;;;;;;;;;;;;;20.39;30.75;99746.59;5034910;28;19956;-61
2020/12/27 01:50:46;;;;;;;;;;;;;;;20.37;30.63;99738.56;5030473;28;19925;-60
2020/12/27 01:53:26;;;;;;;;;;;;;;;20.35;30.66;99715.88;5023088;28;19948;-61
2020/12/27 01:55:53;;;;;;;;;;;;;;;20.36;30.55;99716.69;5030949;28;19925;-60
2020/12/27 01:58:20;;;;;;;;;;;;;;;20.33;31.13;99720.03;5033133;28;19983;-61
2020/12/27 02:00:57;;;;;;;;;;;;;;;20.36;31.00;99702.84;5017837;28;19925;-60
2020/12/27 02:03:33;;;;;;;;;;;;;;;20.40;31.30;99703.94;5014290;28;20383;-60
2020/12/27 02:06:07;;;;;;;;;;;;;;;20.42;31.12;99704.47;5029026;28;19968;-61
2020/12/27 02:08:33;;;;;;;;;;;;;;;20.46;31.17;99699.97;5030716;28;19925;-60
2020/12/27 02:11:12;;;;;;;;;;;;;;;20.48;31.00;99702.47;5028759;28;19987;-60
2020/12/27 02:13:51;;;;;;;;;;;;;;;20.48;29.91;99683.91;5030629;28;19936;-61
2020/12/27 02:16:18;;;;;;;;;;;;;;;20.39;30.01;99677.38;5022677;28;19932;-59
2020/12/27 02:19:14;;;;;;;;;;;;;;;20.25;29.66;99663.38;5032162;28;19925;-59
2020/12/27 02:21:45;;;;;;;;;;;;;;;20.12;29.70;99654.94;5037217;28;19926;-60
2020/12/27 02:24:25;;;;;;;;;;;;;;;20.03;30.79;99652.81;5032652;28;20406;-60
2020/12/27 02:26:58;;;;;;;;;;;;;;;20.12;30.67;99652.16;5034366;28;20386;-61
2020/12/27 02:29:26;;;;;;;;;;;;;;;20.18;30.79;99643.53;5037646;28;20012;-60
2020/12/27 02:31:56;;;;;;;;;;;;;;;20.23;30.48;99640.72;5039626;28;19994;-64
2020/12/27 02:34:22;;;;;;;;;;;;;;;20.27;30.22;99625.16;5035836;28;19925;-60
2020/12/27 02:36:49;;;;;;;;;;;;;;;20.32;30.03;99614.03;5032705;28;19945;-60
2020/12/27 02:39:16;;;;;;;;;;;;;;;20.35;30.01;99613.47;5032091;28;20020;-60
2020/12/27 02:41:43;;;;;;;;;;;;;;;20.36;30.21;99608.75;5032600;28;20326;-60
2020/12/27 02:44:18;;;;;;;;;;;;;;;20.36;30.14;99603.22;5031999;28;19925;-60
2020/12/27 02:47:08;;;;;;;;;;;;;;;20.35;30.22;99602.38;5027332;28;20395;-61
2020/12/27 02:50:12;;;;;;;;;;;;;;;20.35;29.98;99587.72;5026023;28;19933;-60
2020/12/27 02:52:40;;;;;;;;;;;;;;;20.35;30.11;99579.41;5037075;28;19955;-60
2020/12/27 02:55:06;;;;;;;;;;;;;;;20.33;30.02;99576.94;5041835;28;19926;-60
2020/12/27 02:57:40;;;;;;;;;;;;;;;20.33;30.17;99571.41;5032131;28;19956;-61
2020/12/27 03:00:07;;;;;;;;;;;;;;;20.32;29.89;99569.75;5031618;28;19935;-60
2020/12/27 03:02:51;;;;;;;;;;;;;;;20.31;29.93;99573.66;5024805;28;19926;-59
2020/12/27 03:05:32;;;;;;;;;;;;;;;20.31;29.99;99570.06;5028404;28;20049;-60
2020/12/27 03:07:59;;;;;;;;;;;;;;;20.33;29.74;99553.97;5010305;28;20354;-60
2020/12/27 03:10:37;;;;;;;;;;;;;;;20.31;29.79;99539.63;5032276;28;19925;-59
2020/12/27 03:13:06;;;;;;;;;;;;;;;20.32;29.44;99535.72;5033084;28;20323;-60
2020/12/27 03:15:32;;;;;;;;;;;;;;;20.32;29.63;99528.25;5031552;28;19932;-60
2020/12/27 03:18:28;;;;;;;;;;;;;;;20.32;29.62;99516.34;4996962;28;19925;-60
2020/12/27 03:21:27;;;;;;;;;;;;;;;20.30;29.51;99504.75;5020978;28;19925;-59
2020/12/27 03:23:53;;;;;;;;;;;;;;;20.28;29.57;99501.47;5031752;28;19925;-60
2020/12/27 03:26:26;;;;;;;;;;;;;;;20.26;29.17;99499.00;5034326;28;19957;-59
2020/12/27 03:28:52;;;;;;;;;;;;;;;20.24;29.38;99494.88;5020452;28;19936;-59
2020/12/27 03:31:18;;;;;;;;;;;;;;;20.23;29.51;99491.28;5030393;28;20377;-59
2020/12/27 03:33:45;;;;;;;;;;;;;;;20.21;29.29;99485.22;5031395;28;20632;-60
2020/12/27 03:36:16;;;;;;;;;;;;;;;20.24;29.72;99489.34;5032563;28;19929;-61
2020/12/27 03:38:57;;;;;;;;;;;;;;;20.23;29.42;99482.16;5031241;28;20167;-61
2020/12/27 03:41:46;;;;;;;;;;;;;;;20.26;29.24;99476.03;5022779;28;20314;-59
2020/12/27 03:44:17;;;;;;;;;;;;;;;20.25;29.50;99474.38;5040187;28;19925;-61
2020/12/27 03:47:02;;;;;;;;;;;;;;;20.24;29.44;99473.56;5030998;28;20023;-60
2020/12/27 03:49:40;;;;;;;;;;;;;;;20.24;29.17;99472.72;5031517;28;19937;-60
2020/12/27 03:52:20;;;;;;;;;;;;;;;20.25;28.95;99471.63;5031169;28;20302;-59
2020/12/27 03:55:05;;;;;;;;;;;;;;;20.25;29.14;99463.31;5019688;28;19932;-60
2020/12/27 03:57:50;;;;;;;;;;;;;;;20.26;29.17;99448.34;5019321;28;20408;-59
2020/12/27 04:00:30;;;;;;;;;;;;;;;20.26;28.97;99448.34;5016945;28;19929;-60
2020/12/27 04:03:06;;;;;;;;;;;;;;;20.24;29.04;99445.06;5030812;28;19947;-60
2020/12/27 04:05:36;;;;;;;;;;;;;;;20.25;29.21;99435.63;5031453;28;19925;-60
2020/12/27 04:08:03;;;;;;;;;;;;;;;20.24;29.21;99436.75;5027117;28;19988;-61
2020/12/27 04:10:29;;;;;;;;;;;;;;;20.23;29.13;99430.41;5017625;28;19929;-61
2020/12/27 04:12:57;;;;;;;;;;;;;;;20.24;29.04;99431.22;5047590;28;19925;-62
2020/12/27 04:15:23;;;;;;;;;;;;;;;20.25;29.05;99427.34;5041702;28;19925;-60
2020/12/27 04:18:02;;;;;;;;;;;;;;;20.26;29.04;99417.91;5030190;28;19932;-59
2020/12/27 04:20:46;;;;;;;;;;;;;;;20.26;28.84;99409.63;5030907;28;20260;-61
2020/12/27 04:23:13;;;;;;;;;;;;;;;20.24;28.99;99404.38;5028953;28;19972;-60
2020/12/27 04:25:40;;;;;;;;;;;;;;;20.25;28.73;99397.72;5032181;28;19968;-61
2020/12/27 04:28:07;;;;;;;;;;;;;;;20.25;29.07;99380.31;5030126;28;20011;-60
2020/12/27 04:30:33;;;;;;;;;;;;;;;20.23;28.74;99390.84;5030521;28;19932;-59
2020/12/27 04:33:16;;;;;;;;;;;;;;;20.20;28.73;99375.66;5027430;28;19929;-60
2020/12/27 04:36:01;;;;;;;;;;;;;;;20.19;28.82;99364.91;5030189;28;20437;-61
2020/12/27 04:38:27;;;;;;;;;;;;;;;20.18;28.85;99360.47;5029957;28;19925;-60
2020/12/27 04:40:54;;;;;;;;;;;;;;;20.18;28.76;99361.31;5031624;28;19925;-61
2020/12/27 04:43:21;;;;;;;;;;;;;;;20.18;28.45;99346.66;5032150;28;19925;-60
2020/12/27 04:45:50;;;;;;;;;;;;;;;20.15;28.74;99339.78;5033869;28;20402;-60
2020/12/27 04:48:32;;;;;;;;;;;;;;;20.16;28.85;99332.28;5033615;28;19925;-60
2020/12/27 04:51:05;;;;;;;;;;;;;;;20.15;28.70;99327.88;5034910;28;20284;-60
2020/12/27 04:53:33;;;;;;;;;;;;;;;20.14;28.66;99307.69;5014231;28;19957;-60
2020/12/27 04:56:02;;;;;;;;;;;;;;;20.14;28.41;99309.63;5033951;28;20395;-61
2020/12/27 04:58:40;;;;;;;;;;;;;;;20.16;28.81;99296.31;5033841;28;19965;-59
2020/12/27 05:01:14;;;;;;;;;;;;;;;20.14;28.54;99313.22;5031996;28;19925;-60
2020/12/27 05:03:59;;;;;;;;;;;;;;;20.14;28.46;99304.94;5039711;28;19925;-60
2020/12/27 05:06:34;;;;;;;;;;;;;;;20.14;28.55;99293.03;5033486;28;19925;-61
2020/12/27 05:09:02;;;;;;;;;;;;;;;20.12;28.26;99279.50;4985012;28;19932;-61
2020/12/27 05:11:31;;;;;;;;;;;;;;;20.12;28.52;99284.22;4992782;28;19932;-62
2020/12/27 05:14:09;;;;;;;;;;;;;;;20.15;28.46;99272.53;4990861;28;19926;-62
2020/12/27 05:16:42;;;;;;;;;;;;;;;20.15;28.13;99269.78;4982364;28;19949;-61
2020/12/27 05:19:09;;;;;;;;;;;;;;;20.11;28.40;99272.31;4973275;28;20014;-61
2020/12/27 05:21:37;;;;;;;;;;;;;;;20.10;28.22;99250.53;4973254;28;19926;-61
2020/12/27 05:24:13;;;;;;;;;;;;;;;20.08;28.22;99248.88;4973506;28;19954;-61
2020/12/27 05:26:51;;;;;;;;;;;;;;;20.08;28.14;99229.53;4973264;28;20028;-61
2020/12/27 05:29:36;;;;;;;;;;;;;;;20.11;28.38;99241.06;4973451;28;20434;-61
2020/12/27 05:32:25;;;;;;;;;;;;;;;20.10;27.99;99233.94;4973339;28;19926;-61
2020/12/27 05:35:17;;;;;;;;;;;;;;;20.07;28.04;99235.34;4973302;28;20446;-61
2020/12/27 05:38:09;;;;;;;;;;;;;;;20.06;28.15;99217.13;4960298;28;20384;-62
2020/12/27 05:41:08;;;;;;;;;;;;;;;20.07;27.92;99225.13;4973069;28;19973;-61
2020/12/27 05:43:45;;;;;;;;;;;;;;;20.07;28.15;99214.03;4972879;28;19937;-61
2020/12/27 05:46:12;;;;;;;;;;;;;;;20.05;28.04;99196.94;4972744;28;20047;-61
2020/12/27 05:48:38;;;;;;;;;;;;;;;20.06;27.86;99194.97;4972697;28;20455;-61
2020/12/27 05:51:05;;;;;;;;;;;;;;;20.06;27.92;99192.22;4972859;28;20399;-61
2020/12/27 05:53:36;;;;;;;;;;;;;;;20.03;28.30;99185.34;4941664;28;19930;-61
2020/12/27 05:56:06;;;;;;;;;;;;;;;20.03;27.94;99176.22;4972332;28;20029;-61
2020/12/27 05:58:37;;;;;;;;;;;;;;;20.05;27.86;99180.34;4973227;28;19926;-62
2020/12/27 06:01:14;;;;;;;;;;;;;;;20.06;27.75;99181.97;4958782;28;19930;-64
2020/12/27 06:03:50;;;;;;;;;;;;;;;20.07;27.68;99177.25;4973300;28;19926;-62
2020/12/27 06:06:35;;;;;;;;;;;;;;;20.06;27.85;99181.16;4956943;28;19958;-61
2020/12/27 06:09:05;;;;;;;;;;;;;;;20.06;27.80;99178.38;4953294;29;19926;-61
2020/12/27 06:11:53;;;;;;;;;;;;;;;20.04;27.68;99175.91;4939672;29;19933;-60
2020/12/27 06:14:36;;;;;;;;;;;;;;;20.06;27.78;99176.44;4937965;29;19926;-62
2020/12/27 06:17:47;;;;;;;;;;;;;;;20.05;27.68;99166.50;4945682;28;20401;-61
2020/12/27 06:20:32;;;;;;;;;;;;;;;20.06;27.73;99159.84;4953027;29;20508;-61
2020/12/27 06:22:59;;;;;;;;;;;;;;;20.05;27.68;99149.91;4952805;29;19926;-61
2020/12/27 06:25:33;;;;;;;;;;;;;;;20.03;27.73;99135.56;4937791;29;19927;-62
2020/12/27 06:27:59;;;;;;;;;;;;;;;20.03;27.91;99130.03;4952553;29;19934;-60
2020/12/27 06:30:45;;;;;;;;;;;;;;;20.03;27.57;99121.72;4952890;29;19933;-62
2020/12/27 06:33:33;;;;;;;;;;;;;;;20.03;27.62;99135.56;4953906;29;19984;-61
2020/12/27 06:36:03;;;;;;;;;;;;;;;20.03;27.73;99135.56;4952668;29;19927;-61
2020/12/27 06:38:39;;;;;;;;;;;;;;;20.00;27.60;99133.41;4951994;29;19949;-61
2020/12/27 06:41:12;;;;;;;;;;;;;;;19.99;27.55;99117.94;4952653;29;19926;-61
2020/12/27 06:43:57;;;;;;;;;;;;;;;19.98;27.66;99119.06;4942769;29;19933;-61
2020/12/27 06:46:32;;;;;;;;;;;;;;;19.99;27.48;99111.56;4937952;29;20463;-61
2020/12/27 06:49:07;;;;;;;;;;;;;;;19.98;27.25;99115.47;4952334;29;19933;-64
2020/12/27 06:51:53;;;;;;;;;;;;;;;19.98;27.33;99105.22;4953573;29;20009;-64
2020/12/27 06:54:46;;;;;;;;;;;;;;;19.95;27.42;99099.47;4967850;28;19949;-62
2020/12/27 06:57:39;;;;;;;;;;;;;;;19.95;27.44;99091.19;4937833;29;20033;-62
2020/12/27 07:00:26;;;;;;;;;;;;;;;19.95;27.42;99075.41;4957547;28;20443;-62
2020/12/27 07:03:07;;;;;;;;;;;;;;;19.98;27.33;99079.50;4952202;29;19973;-61
2020/12/27 07:05:34;;;;;;;;;;;;;;;19.98;27.29;99082.28;4951572;28;19926;-62
2020/12/27 07:08:02;;;;;;;;;;;;;;;19.99;27.01;99068.16;4963141;28;20014;-63
2020/12/27 07:10:29;;;;;;;;;;;;;;;19.98;26.92;99060.16;4971291;28;19926;-63
2020/12/27 07:13:05;;;;;;;;;;;;;;;19.97;26.79;99051.03;4971497;28;20304;-63
2020/12/27 07:15:32;;;;;;;;;;;;;;;19.97;27.04;99052.97;4971003;28;19926;-62
2020/12/27 07:18:08;;;;;;;;;;;;;;;19.95;26.81;99047.75;4972575;28;19926;-63
2020/12/27 07:20:34;;;;;;;;;;;;;;;19.92;26.92;99040.06;4972394;28;20404;-62
2020/12/27 07:23:01;;;;;;;;;;;;;;;19.93;26.96;99029.81;4971274;28;19932;-61
2020/12/27 07:25:28;;;;;;;;;;;;;;;19.92;26.87;99020.72;4955155;28;20451;-61
2020/12/27 07:27:55;;;;;;;;;;;;;;;19.90;26.49;99024.91;4971973;28;19936;-61
2020/12/27 07:30:21;;;;;;;;;;;;;;;19.91;26.38;99004.41;4971269;28;19945;-62
2020/12/27 07:32:48;;;;;;;;;;;;;;;19.91;26.39;99015.47;4971045;28;20176;-62
2020/12/27 07:35:14;;;;;;;;;;;;;;;19.93;26.39;99004.94;4971218;28;20324;-61
2020/12/27 07:37:44;;;;;;;;;;;;;;;19.90;26.41;98998.06;4971903;28;19949;-60
2020/12/27 07:40:11;;;;;;;;;;;;;;;19.90;26.31;99011.91;4972193;28;19933;-61
2020/12/27 07:42:37;;;;;;;;;;;;;;;19.92;26.08;99004.13;4954850;28;20316;-62
2020/12/27 07:45:13;;;;;;;;;;;;;;;19.97;25.87;99009.53;4972166;28;19933;-63
2020/12/27 07:47:39;;;;;;;;;;;;;;;19.99;26.19;99023.06;4971176;28;19930;-61
2020/12/27 07:50:09;;;;;;;;;;;;;;;20.02;25.93;99017.75;4972113;28;19933;-61
2020/12/27 07:52:46;;;;;;;;;;;;;;;20.07;26.09;99009.34;4971042;28;19927;-62
2020/12/27 07:55:19;;;;;;;;;;;;;;;20.10;25.66;98996.81;4970901;28;20501;-60
2020/12/27 07:57:45;;;;;;;;;;;;;;;20.18;25.66;99000.81;4971963;28;19945;-61
2020/12/27 08:00:12;;;;;;;;;;;;;;;20.21;25.57;98991.91;4971015;28;19926;-61
2020/12/27 08:02:41;;;;;;;;;;;;;;;20.23;25.45;98993.22;4971951;28;19973;-61
2020/12/27 08:05:08;;;;;;;;;;;;;;;20.27;25.26;98993.44;4970961;28;20028;-61
2020/12/27 08:07:35;;;;;;;;;;;;;;;20.29;25.26;98993.94;4979673;28;20105;-61
2020/12/27 08:10:11;;;;;;;;;;;;;;;20.33;25.28;99006.84;4990143;28;19926;-61
2020/12/27 08:12:38;;;;;;;;;;;;;;;20.26;24.83;98973.25;4991376;28;19926;-60
2020/12/27 08:15:07;;;;;;;;;;;;;;;20.08;24.83;98971.44;4991065;28;19937;-61
2020/12/27 08:17:33;;;;;;;;;;;;;;;19.95;24.95;98955.66;4975006;28;19926;-62
2020/12/27 08:20:00;;;;;;;;;;;;;;;19.85;25.31;98955.88;4995074;28;19925;-62
2020/12/27 08:22:27;;;;;;;;;;;;;;;19.77;25.07;98946.34;4995215;28;19930;-62
2020/12/27 08:24:53;;;;;;;;;;;;;;;19.70;25.15;98937.66;4995188;28;19992;-65
2020/12/27 08:27:20;;;;;;;;;;;;;;;19.86;24.51;98941.75;4994733;28;20444;-60
2020/12/27 08:29:46;;;;;;;;;;;;;;;19.79;24.84;98929.44;4994605;28;19926;-61
2020/12/27 08:32:12;;;;;;;;;;;;;;;19.73;24.56;98939.81;4977332;28;20020;-61
2020/12/27 08:34:39;;;;;;;;;;;;;;;19.75;24.69;98929.28;4994458;28;19926;-61
2020/12/27 08:37:05;;;;;;;;;;;;;;;19.85;24.37;98926.28;4961117;28;20311;-62
2020/12/27 08:39:44;;;;;;;;;;;;;;;20.21;23.84;98908.91;4976936;28;19926;-60
2020/12/27 08:42:25;;;;;;;;;;;;;;;19.97;24.31;98918.28;4977243;28;19933;-61
2020/12/27 08:45:04;;;;;;;;;;;;;;;19.98;23.93;98908.84;4966740;28;20323;-62
2020/12/27 08:47:46;;;;;;;;;;;;;;;20.07;23.92;98898.72;4964375;28;19926;-62
2020/12/27 08:50:16;;;;;;;;;;;;;;;20.21;23.92;98900.59;4994125;28;19949;-63
2020/12/27 08:52:59;;;;;;;;;;;;;;;20.26;23.88;98890.25;4977582;28;19925;-64
2020/12/27 08:55:27;;;;;;;;;;;;;;;20.40;23.62;98884.72;4977061;28;19925;-61
2020/12/27 08:58:00;;;;;;;;;;;;;;;20.48;23.23;98880.34;4993412;28;19989;-60
2020/12/27 09:00:33;;;;;;;;;;;;;;;20.45;23.57;98881.78;4994494;28;20024;-61
2020/12/27 09:02:59;;;;;;;;;;;;;;;20.48;23.20;98874.81;4960872;28;20343;-61
2020/12/27 09:05:27;;;;;;;;;;;;;;;20.70;23.11;98867.34;4973614;28;19927;-61
2020/12/27 09:07:53;;;;;;;;;;;;;;;20.63;23.09;98855.88;4984178;28;19926;-61
2020/12/27 09:10:20;;;;;;;;;;;;;;;20.72;22.86;98861.50;4994046;28;19930;-61
2020/12/27 09:12:57;;;;;;;;;;;;;;;20.74;22.75;98864.75;4977208;28;19972;-61
2020/12/27 09:15:43;;;;;;;;;;;;;;;20.70;22.67;98866.53;4994077;28;19926;-61
2020/12/27 09:18:11;;;;;;;;;;;;;;;20.85;22.30;98857.81;4994079;28;20025;-61
2020/12/27 09:20:38;;;;;;;;;;;;;;;20.52;22.85;98860.03;4993898;28;19930;-62
2020/12/27 09:23:14;;;;;;;;;;;;;;;20.40;23.04;98863.38;4976696;28;20140;-62
2020/12/27 09:25:44;;;;;;;;;;;;;;;20.33;22.80;98870.44;4993819;28;20029;-61
2020/12/27 09:28:11;;;;;;;;;;;;;;;19.99;23.33;98866.25;4976502;28;19926;-61
2020/12/27 09:30:41;;;;;;;;;;;;;;;20.02;23.33;98867.56;4976146;28;19926;-61
2020/12/27 09:33:08;;;;;;;;;;;;;;;19.64;23.90;98867.03;4976238;28;19937;-62
2020/12/27 09:35:34;;;;;;;;;;;;;;;19.61;23.74;98856.59;4976474;28;20166;-61
2020/12/27 09:38:00;;;;;;;;;;;;;;;19.54;23.80;98850.66;4993298;28;19926;-62
2020/12/27 09:40:34;;;;;;;;;;;;;;;19.41;23.92;98842.00;4993461;28;20388;-62
2020/12/27 09:43:04;;;;;;;;;;;;;;;19.42;23.99;98838.13;4993882;28;19925;-62
2020/12/27 09:45:31;;;;;;;;;;;;;;;19.36;24.01;98833.84;4993708;28;19948;-62
2020/12/27 09:47:59;;;;;;;;;;;;;;;19.36;24.08;98820.03;4976266;28;19930;-62
2020/12/27 09:50:31;;;;;;;;;;;;;;;19.32;24.06;98826.47;4976283;28;19933;-62
2020/12/27 09:52:57;;;;;;;;;;;;;;;19.31;24.11;98822.91;4993493;28;19929;-62
2020/12/27 09:55:24;;;;;;;;;;;;;;;19.26;24.00;98809.19;4992884;28;19941;-61
2020/12/27 09:57:50;;;;;;;;;;;;;;;19.29;23.99;98805.81;4993806;28;19961;-62
2020/12/27 10:00:17;;;;;;;;;;;;;;;19.35;23.88;98801.81;4993053;28;19933;-63
2020/12/27 10:02:43;;;;;;;;;;;;;;;19.23;23.88;98804.28;4960254;28;20303;-62
2020/12/27 10:05:09;;;;;;;;;;;;;;;19.23;23.99;98808.97;4976050;28;19973;-61
2020/12/27 10:07:36;;;;;;;;;;;;;;;19.21;24.14;98803.75;4975949;28;19930;-61
2020/12/27 10:10:04;;;;;;;;;;;;;;;19.26;23.87;98800.09;4993012;28;19965;-61
2020/12/27 10:12:31;;;;;;;;;;;;;;;19.25;23.92;98793.75;4960307;28;20336;-61
2020/12/27 10:14:57;;;;;;;;;;;;;;;19.16;24.04;98795.56;4992914;28;20399;-61
2020/12/27 10:17:24;;;;;;;;;;;;;;;19.14;23.98;98783.19;4993111;28;20028;-61
2020/12/27 10:19:50;;;;;;;;;;;;;;;19.20;23.79;98774.50;4992869;28;20276;-60
2020/12/27 10:22:17;;;;;;;;;;;;;;;19.26;23.67;98776.03;4993171;28;19925;-62
2020/12/27 10:24:43;;;;;;;;;;;;;;;19.42;23.49;98754.41;4993067;28;20335;-61
2020/12/27 10:27:10;;;;;;;;;;;;;;;19.28;23.71;98754.47;4992409;28;19925;-61
2020/12/27 10:29:37;;;;;;;;;;;;;;;19.39;23.43;98749.53;4975764;28;20350;-60
2020/12/27 10:32:04;;;;;;;;;;;;;;;19.35;23.56;98748.53;4976148;28;19926;-63
2020/12/27 10:34:31;;;;;;;;;;;;;;;19.36;23.46;98739.91;4992855;28;20300;-61
2020/12/27 10:36:58;;;;;;;;;;;;;;;19.51;23.25;98735.19;4974789;28;19926;-61
2020/12/27 10:39:24;;;;;;;;;;;;;;;19.56;23.29;98726.78;4990470;28;19937;-62
2020/12/27 10:41:51;;;;;;;;;;;;;;;19.29;23.57;98727.66;4988610;28;19961;-61
2020/12/27 10:44:17;;;;;;;;;;;;;;;19.35;23.39;98705.13;4992883;28;20024;-61
2020/12/27 10:46:44;;;;;;;;;;;;;;;19.42;22.88;98699.97;4974963;28;19961;-61
2020/12/27 10:49:11;;;;;;;;;;;;;;;19.91;22.08;98676.19;4959699;28;19926;-62
2020/12/27 10:51:37;;;;;;;;;;;;;;;20.03;22.31;98681.97;4992321;28;19926;-61
2020/12/27 10:54:04;;;;;;;;;;;;;;;19.87;22.37;98683.47;4991491;28;19932;-61
2020/12/27 10:56:30;;;;;;;;;;;;;;;19.39;23.10;98683.22;4974878;28;19937;-61
2020/12/27 10:58:56;;;;;;;;;;;;;;;19.85;22.32;98641.50;4974941;28;20013;-62
2020/12/27 11:01:22;;;;;;;;;;;;;;;19.60;22.54;98647.66;4975169;28;20306;-62
2020/12/27 11:03:49;;;;;;;;;;;;;;;19.31;22.92;98635.06;4993216;28;19926;-62
2020/12/27 11:06:15;;;;;;;;;;;;;;;19.29;22.92;98622.69;4993068;28;19980;-62
2020/12/27 11:08:41;;;;;;;;;;;;;;;19.47;22.82;98618.91;5023180;22;20332;-61
2020/12/27 11:11:08;;;;;;;;;;;;;;;19.89;21.94;98601.00;5014773;28;19926;-62
2020/12/27 11:13:34;;;;;;;;;;;;;;;19.90;21.60;98591.59;5014763;28;19983;-61
2020/12/27 11:16:00;;;;;;;;;;;;;;;19.76;21.92;98590.84;5014540;28;19926;-61
2020/12/27 11:18:26;;;;;;;;;;;;;;;19.75;21.72;98578.97;5003615;28;20367;-61
2020/12/27 11:20:53;;;;;;;;;;;;;;;19.49;22.19;98579.91;4978532;28;19930;-61
2020/12/27 11:23:19;;;;;;;;;;;;;;;19.21;22.75;98576.47;4964958;28;19930;-61
2020/12/27 11:25:45;;;;;;;;;;;;;;;19.31;22.47;98567.94;5003478;28;19926;-61
2020/12/27 11:28:12;;;;;;;;;;;;;;;19.26;22.48;98568.88;4995241;28;20029;-61
2020/12/27 11:30:38;;;;;;;;;;;;;;;19.54;22.20;98574.28;4994645;28;19925;-61
2020/12/27 11:33:04;;;;;;;;;;;;;;;19.22;22.46;98567.88;4992312;28;19989;-62
2020/12/27 11:35:46;;;;;;;;;;;;;;;19.29;22.38;98554.44;4975881;28;19926;-61
2020/12/27 11:38:12;;;;;;;;;;;;;;;18.93;22.73;98550.91;4995294;28;20352;-61
2020/12/27 11:40:38;;;;;;;;;;;;;;;19.35;22.29;98544.09;4961688;28;19925;-61
2020/12/27 11:43:04;;;;;;;;;;;;;;;18.93;22.90;98534.34;4978378;28;19926;-61
2020/12/27 11:45:31;;;;;;;;;;;;;;;18.78;23.06;98526.38;4995923;28;19973;-60
2020/12/27 11:47:57;;;;;;;;;;;;;;;18.84;23.04;98522.38;4995593;28;20479;-61
2020/12/27 11:50:23;;;;;;;;;;;;;;;18.82;23.05;98508.91;4996212;28;19926;-61
2020/12/27 11:52:49;;;;;;;;;;;;;;;18.74;23.21;98518.72;4978947;28;19953;-61
2020/12/27 11:55:16;;;;;;;;;;;;;;;18.90;23.32;98505.41;4981849;28;20032;-61
2020/12/27 11:57:42;;;;;;;;;;;;;;;19.05;23.17;98501.47;4989541;28;20474;-61
2020/12/27 12:00:09;;;;;;;;;;;;;;;19.15;23.21;98492.09;4982145;28;20481;-61
2020/12/27 12:02:38;;;;;;;;;;;;;;;19.23;23.33;98492.16;4998846;28;19925;-61
2020/12/27 12:05:04;;;;;;;;;;;;;;;19.25;23.15;98473.31;4998132;28;19925;-62
2020/12/27 12:07:30;;;;;;;;;;;;;;;19.29;23.21;98457.75;4982243;28;20404;-60
2020/12/27 12:09:56;;;;;;;;;;;;;;;19.28;23.20;98456.13;4981839;28;19947;-60
2020/12/27 12:12:23;;;;;;;;;;;;;;;19.27;23.38;98446.22;4999475;28;19930;-61
2020/12/27 12:14:49;;;;;;;;;;;;;;;19.29;23.18;98438.41;4999489;28;19932;-60
2020/12/27 12:17:15;;;;;;;;;;;;;;;19.27;23.33;98443.44;4983363;28;19965;-60
2020/12/27 12:19:42;;;;;;;;;;;;;;;19.26;23.51;98429.94;4971408;28;19926;-59
2020/12/27 12:22:08;;;;;;;;;;;;;;;19.29;23.31;98418.28;4978566;28;19926;-60
2020/12/27 12:24:35;;;;;;;;;;;;;;;19.34;23.44;98420.91;4996923;28;19949;-60
2020/12/27 12:27:01;;;;;;;;;;;;;;;19.33;23.28;98436.66;4976721;28;19926;-60
2020/12/27 12:29:27;;;;;;;;;;;;;;;19.24;23.03;98423.94;4997083;28;19926;-60
2020/12/27 12:31:53;;;;;;;;;;;;;;;19.22;23.20;98429.75;4990226;28;19929;-60
2020/12/27 12:34:19;;;;;;;;;;;;;;;19.20;23.76;98404.41;5009554;28;19953;-60
2020/12/27 12:36:49;;;;;;;;;;;;;;;19.27;23.50;98393.72;4996297;28;19949;-60
2020/12/27 12:39:15;;;;;;;;;;;;;;;19.30;23.65;98395.84;4994473;28;19936;-60
2020/12/27 12:41:42;;;;;;;;;;;;;;;19.30;23.68;98393.09;4999014;28;19925;-63
2020/12/27 12:44:08;;;;;;;;;;;;;;;19.31;23.63;98371.81;4997707;28;19936;-60
2020/12/27 12:46:34;;;;;;;;;;;;;;;19.32;23.71;98354.09;4980198;28;19933;-60
2020/12/27 12:49:00;;;;;;;;;;;;;;;19.28;23.62;98351.16;4996885;28;19957;-60
2020/12/27 12:51:27;;;;;;;;;;;;;;;19.26;23.71;98347.09;5002684;28;19972;-60
2020/12/27 12:53:53;;;;;;;;;;;;;;;19.27;23.79;98327.44;5004677;28;19965;-60
2020/12/27 12:56:19;;;;;;;;;;;;;;;19.27;23.92;98321.91;4999120;28;20363;-60
2020/12/27 12:58:45;;;;;;;;;;;;;;;19.29;23.64;98316.88;4996733;28;19926;-60
2020/12/27 13:01:12;;;;;;;;;;;;;;;19.30;23.85;98315.75;4979864;28;20013;-59
2020/12/27 13:03:42;;;;;;;;;;;;;;;19.29;23.91;98307.78;4991772;28;19926;-61
2020/12/27 13:06:10;;;;;;;;;;;;;;;19.31;23.78;98295.28;4986429;28;19933;-60
2020/12/27 13:08:36;;;;;;;;;;;;;;;19.33;23.83;98286.69;4994539;28;19934;-60